createdAt,value
2022-11-08T00:00:05.762Z,70.72
2022-11-08T00:02:32.473Z,70.73
2022-11-08T00:04:59.097Z,70.73
2022-11-08T00:07:44.349Z,70.91
2022-11-08T00:10:32.025Z,71.30
2022-11-08T00:13:20.175Z,71.08
2022-11-08T00:15:51.514Z,70.76
2022-11-08T00:18:23.578Z,71.06
2022-11-08T00:20:50.299Z,70.85
2022-11-08T00:23:16.890Z,70.75
2022-11-08T00:25:43.443Z,71.86
2022-11-08T00:28:10.032Z,72.85
2022-11-08T00:30:36.534Z,72.90
2022-11-08T00:33:03.026Z,72.63
2022-11-08T00:35:29.554Z,73.18
2022-11-08T00:37:56.234Z,72.99
2022-11-08T00:40:22.730Z,72.88
2022-11-08T00:42:52.179Z,72.57
2022-11-08T00:45:18.895Z,72.48
2022-11-08T00:47:45.427Z,72.40
2022-11-08T00:50:14.353Z,72.38
2022-11-08T00:52:40.871Z,72.08
2022-11-08T00:55:07.592Z,71.85
2022-11-08T00:57:47.295Z,71.54
2022-11-08T01:00:23.096Z,71.70
2022-11-08T01:03:09.750Z,71.79
2022-11-08T01:05:39.450Z,71.71
2022-11-08T01:08:06.092Z,71.57
2022-11-08T01:10:32.739Z,71.69
2022-11-08T01:12:59.331Z,71.36
2022-11-08T01:15:25.892Z,71.45
2022-11-08T01:17:52.683Z,71.56
2022-11-08T01:20:21.743Z,71.48
2022-11-08T01:22:48.299Z,71.81
2022-11-08T01:25:17.894Z,71.55
2022-11-08T01:27:44.432Z,71.23
2022-11-08T01:30:11.233Z,71.43
2022-11-08T01:32:37.916Z,71.46
2022-11-08T01:35:07.039Z,71.45
2022-11-08T01:37:33.757Z,71.49
2022-11-08T01:40:00.241Z,71.49
2022-11-08T01:42:31.603Z,71.33
2022-11-08T01:45:04.248Z,71.24
2022-11-08T01:47:30.790Z,71.21
2022-11-08T01:50:01.199Z,71.03
2022-11-08T01:52:36.623Z,70.86
2022-11-08T01:55:22.475Z,70.94
2022-11-08T01:57:59.602Z,70.72
2022-11-08T02:00:26.128Z,70.40
2022-11-08T02:02:57.121Z,70.30
2022-11-08T02:05:26.732Z,70.24
2022-11-08T02:07:56.349Z,70.18
2022-11-08T02:10:23.883Z,69.96
2022-11-08T02:12:51.043Z,69.83
2022-11-08T02:15:17.792Z,70.00
2022-11-08T02:17:46.413Z,70.04
2022-11-08T02:20:15.498Z,70.02
2022-11-08T02:22:45.643Z,70.43
2022-11-08T02:25:12.965Z,70.51
2022-11-08T02:27:41.569Z,70.39
2022-11-08T02:30:10.415Z,70.14
2022-11-08T02:32:42.964Z,70.47
2022-11-08T02:35:11.433Z,70.55
2022-11-08T02:37:37.964Z,70.52
2022-11-08T02:40:05.114Z,70.41
2022-11-08T02:42:31.619Z,70.59
2022-11-08T02:45:03.698Z,70.53
2022-11-08T02:47:30.221Z,70.56
2022-11-08T02:49:59.546Z,70.64
2022-11-08T02:52:26.083Z,70.58
2022-11-08T02:54:52.629Z,70.47
2022-11-08T02:57:21.734Z,70.48
2022-11-08T02:59:49.277Z,70.37
2022-11-08T03:02:16.228Z,70.43
2022-11-08T03:04:45.312Z,70.42
2022-11-08T03:07:12.164Z,70.68
2022-11-08T03:09:41.189Z,70.71
2022-11-08T03:12:11.014Z,70.53
2022-11-08T03:14:40.071Z,70.55
2022-11-08T03:17:06.747Z,70.36
2022-11-08T03:19:33.289Z,70.37
2022-11-08T03:21:59.793Z,70.29
2022-11-08T03:24:26.300Z,70.27
2022-11-08T03:26:54.861Z,70.17
2022-11-08T03:29:23.692Z,70.28
2022-11-08T03:31:50.219Z,70.20
2022-11-08T03:34:16.828Z,70.59
2022-11-08T03:36:43.372Z,70.79
2022-11-08T03:39:10.562Z,70.93
2022-11-08T03:41:39.955Z,70.77
2022-11-08T03:44:06.466Z,71.09
2022-11-08T03:46:36.026Z,71.09
2022-11-08T03:49:02.717Z,71.25
2022-11-08T03:51:29.248Z,70.99
2022-11-08T03:53:55.783Z,71.04
2022-11-08T03:56:24.825Z,71.14
2022-11-08T03:58:51.349Z,71.02
2022-11-08T04:01:22.873Z,71.00
2022-11-08T04:03:49.453Z,71.09
2022-11-08T04:06:15.947Z,71.23
2022-11-08T04:08:47.441Z,71.25
2022-11-08T04:11:32.838Z,71.45
2022-11-08T04:14:18.078Z,71.47
2022-11-08T04:16:47.121Z,71.60
2022-11-08T04:19:32.488Z,71.69
2022-11-08T04:21:59.061Z,71.54
2022-11-08T04:24:25.603Z,71.66
2022-11-08T04:26:52.163Z,71.52
2022-11-08T04:29:21.033Z,71.55
2022-11-08T04:31:47.542Z,71.64
2022-11-08T04:34:14.193Z,71.53
2022-11-08T04:36:40.671Z,71.28
2022-11-08T04:39:09.464Z,71.42
2022-11-08T04:41:36.154Z,71.32
2022-11-08T04:44:03.092Z,70.85
2022-11-08T04:46:29.794Z,70.90
2022-11-08T04:48:57.211Z,71.07
2022-11-08T04:51:30.612Z,71.06
2022-11-08T04:53:59.983Z,70.83
2022-11-08T04:56:29.461Z,70.90
2022-11-08T04:58:56.956Z,71.10
2022-11-08T05:01:26.889Z,70.83
2022-11-08T05:03:56.387Z,70.84
2022-11-08T05:06:27.449Z,70.93
2022-11-08T05:08:54.862Z,70.98
2022-11-08T05:11:22.421Z,70.84
2022-11-08T05:13:49.598Z,71.08
2022-11-08T05:16:17.442Z,71.11
2022-11-08T05:18:44.289Z,71.19
2022-11-08T05:21:30.130Z,71.04
2022-11-08T05:23:57.766Z,71.11
2022-11-08T05:26:24.272Z,71.11
2022-11-08T05:28:50.953Z,70.95
2022-11-08T05:31:17.485Z,70.73
2022-11-08T05:33:44.290Z,71.09
2022-11-08T05:36:14.373Z,71.20
2022-11-08T05:38:45.723Z,71.06
2022-11-08T05:41:13.106Z,71.09
2022-11-08T05:43:44.544Z,70.51
2022-11-08T05:46:14.259Z,70.67
2022-11-08T05:48:42.043Z,70.39
2022-11-08T05:51:09.238Z,70.33
2022-11-08T05:53:38.248Z,70.00
2022-11-08T05:56:07.536Z,69.93
2022-11-08T05:58:37.010Z,69.79
2022-11-08T06:01:13.695Z,69.86
2022-11-08T06:03:40.375Z,69.98
2022-11-08T06:06:08.184Z,70.19
2022-11-08T06:08:35.251Z,70.16
2022-11-08T06:11:02.721Z,69.85
2022-11-08T06:13:29.834Z,69.64
2022-11-08T06:15:59.571Z,70.03
2022-11-08T06:18:28.628Z,70.19
2022-11-08T06:21:03.217Z,70.38
2022-11-08T06:23:32.103Z,70.15
2022-11-08T06:25:58.899Z,69.89
2022-11-08T06:28:25.413Z,69.47
2022-11-08T06:30:51.977Z,69.73
2022-11-08T06:33:19.171Z,69.48
2022-11-08T06:35:46.228Z,69.53
2022-11-08T06:38:12.742Z,69.61
2022-11-08T06:40:39.418Z,69.62
2022-11-08T06:43:06.163Z,69.52
2022-11-08T06:45:33.212Z,69.39
2022-11-08T06:48:02.726Z,69.08
2022-11-08T06:50:32.587Z,69.10
2022-11-08T06:53:03.922Z,68.42
2022-11-08T06:55:32.921Z,69.18
2022-11-08T06:57:59.518Z,69.18
2022-11-08T07:00:28.444Z,69.27
2022-11-08T07:02:59.036Z,69.27
2022-11-08T07:05:28.438Z,68.67
2022-11-08T07:07:56.909Z,68.49
2022-11-08T07:10:24.236Z,68.50
2022-11-08T07:12:58.169Z,68.38
2022-11-08T07:15:25.636Z,68.16
2022-11-08T07:17:55.046Z,68.48
2022-11-08T07:20:24.370Z,68.34
2022-11-08T07:22:54.077Z,68.71
2022-11-08T07:25:23.055Z,68.29
2022-11-08T07:27:52.064Z,68.53
2022-11-08T07:30:18.587Z,68.50
2022-11-08T07:32:45.175Z,68.43
2022-11-08T07:35:11.709Z,68.25
2022-11-08T07:37:38.312Z,68.02
2022-11-08T07:40:05.453Z,67.45
2022-11-08T07:42:56.825Z,67.24
2022-11-08T07:45:18.931Z,66.92
2022-11-08T07:47:48.266Z,67.00
2022-11-08T07:50:17.767Z,68.01
2022-11-08T07:52:49.176Z,68.48
2022-11-08T07:55:15.755Z,68.02
2022-11-08T07:57:46.770Z,68.50
2022-11-08T08:00:13.769Z,68.22
2022-11-08T08:02:40.519Z,67.94
2022-11-08T08:05:09.539Z,67.62
2022-11-08T08:07:39.036Z,67.49
2022-11-08T08:10:08.717Z,67.42
2022-11-08T08:12:37.618Z,66.97
2022-11-08T08:15:04.347Z,66.84
2022-11-08T08:17:30.887Z,65.85
2022-11-08T08:20:04.545Z,66.58
2022-11-08T08:22:31.072Z,66.31
2022-11-08T08:25:02.748Z,66.88
2022-11-08T08:27:32.752Z,66.41
2022-11-08T08:29:59.274Z,66.05
2022-11-08T08:32:30.541Z,66.28
2022-11-08T08:34:58.047Z,66.33
2022-11-08T08:37:27.111Z,66.08
2022-11-08T08:39:56.193Z,66.14
2022-11-08T08:42:22.710Z,65.96
2022-11-08T08:44:49.242Z,65.96
2022-11-08T08:47:15.769Z,65.96
2022-11-08T08:49:44.799Z,65.89
2022-11-08T08:52:11.329Z,65.92
2022-11-08T08:54:38.443Z,65.98
2022-11-08T08:57:04.918Z,65.48
2022-11-08T09:02:22.669Z,65.71
2022-11-08T09:04:51.653Z,65.46
2022-11-08T09:07:22.991Z,65.26
2022-11-08T09:09:49.685Z,64.17
2022-11-08T09:12:21.016Z,65.79
2022-11-08T09:14:47.596Z,66.29
2022-11-08T09:17:14.218Z,66.17
2022-11-08T09:19:43.209Z,65.72
2022-11-08T09:22:09.846Z,64.96
2022-11-08T09:24:38.719Z,65.82
2022-11-08T09:27:05.627Z,65.41
2022-11-08T09:29:37.936Z,65.59
2022-11-08T09:32:09.435Z,65.62
2022-11-08T09:34:38.369Z,65.32
2022-11-08T09:37:04.871Z,65.01
2022-11-08T09:39:31.434Z,65.19
2022-11-08T09:42:10.158Z,64.96
2022-11-08T09:44:49.055Z,64.32
2022-11-08T09:47:35.624Z,64.71
2022-11-08T09:50:05.487Z,64.45
2022-11-08T09:52:33.189Z,64.50
2022-11-08T09:55:04.268Z,64.28
2022-11-08T09:57:35.510Z,64.16
2022-11-08T10:00:03.851Z,63.32
2022-11-08T10:02:31.656Z,64.11
2022-11-08T10:05:01.145Z,64.25
2022-11-08T10:07:30.769Z,63.66
2022-11-08T10:10:06.312Z,63.56
2022-11-08T10:12:38.844Z,63.18
2022-11-08T10:15:29.658Z,62.87
2022-11-08T10:18:03.052Z,62.72
2022-11-08T10:20:30.066Z,62.43
2022-11-08T10:23:04.600Z,62.60
2022-11-08T10:25:42.543Z,61.19
2022-11-08T10:28:12.545Z,62.63
2022-11-08T10:30:39.718Z,62.56
2022-11-08T10:33:32.651Z,63.14
2022-11-08T10:36:03.956Z,62.63
2022-11-08T10:38:40.225Z,62.13
2022-11-08T10:41:07.120Z,60.95
2022-11-08T10:43:50.356Z,61.49
2022-11-08T10:46:29.570Z,60.94
2022-11-08T10:48:59.981Z,59.63
2022-11-08T10:51:28.917Z,58.97
2022-11-08T10:53:55.560Z,57.85
2022-11-08T10:56:24.826Z,57.11
2022-11-08T10:58:56.499Z,56.09
2022-11-08T11:01:23.955Z,57.08
2022-11-08T11:03:51.255Z,57.28
2022-11-08T11:06:20.819Z,56.87
2022-11-08T11:09:00.515Z,55.42
2022-11-08T11:11:27.160Z,53.95
2022-11-08T11:14:07.667Z,54.49
2022-11-08T11:16:35.648Z,53.53
2022-11-08T11:19:02.396Z,53.64
2022-11-08T11:21:34.389Z,54.64
2022-11-08T11:24:24.386Z,53.60
2022-11-08T11:26:57.451Z,53.14
2022-11-08T11:29:24.511Z,52.41
2022-11-08T11:31:52.191Z,51.90
2022-11-08T11:34:18.769Z,49.57
2022-11-08T11:36:47.740Z,50.92
2022-11-08T11:39:16.603Z,50.74
2022-11-08T11:41:44.472Z,48.91
2022-11-08T11:44:28.553Z,48.51
2022-11-08T11:47:04.249Z,49.29
2022-11-08T11:49:33.158Z,49.10
2022-11-08T11:52:02.227Z,48.89
2022-11-08T11:54:32.021Z,48.66
2022-11-08T11:57:01.996Z,48.55
2022-11-08T11:59:34.532Z,48.94
2022-11-08T12:02:04.322Z,49.56
2022-11-08T12:04:40.512Z,49.79
2022-11-08T12:07:11.993Z,48.87
2022-11-08T12:09:48.158Z,47.92
2022-11-08T12:12:17.712Z,48.00
2022-11-08T12:14:50.541Z,48.05
2022-11-08T12:17:26.547Z,46.92
2022-11-08T12:20:24.160Z,47.74
2022-11-08T12:23:11.500Z,46.47
2022-11-08T12:25:53.148Z,47.25
2022-11-08T12:28:25.861Z,47.69
2022-11-08T12:31:15.265Z,47.95
2022-11-08T12:34:05.239Z,50.04
2022-11-08T12:36:57.928Z,48.78
2022-11-08T12:39:36.964Z,49.37
2022-11-08T12:42:12.821Z,50.03
2022-11-08T12:44:51.901Z,48.77
2022-11-08T12:47:18.471Z,49.14
2022-11-08T12:50:00.266Z,49.80
2022-11-08T12:52:26.911Z,49.50
2022-11-08T12:55:00.787Z,49.88
2022-11-08T12:57:31.392Z,49.60
2022-11-08T13:00:03.331Z,49.81
2022-11-08T13:02:34.466Z,50.07
2022-11-08T13:05:04.142Z,48.79
2022-11-08T13:07:51.945Z,49.71
2022-11-08T13:10:37.258Z,46.44
2022-11-08T13:13:17.754Z,47.45
2022-11-08T13:16:03.196Z,47.49
2022-11-08T13:18:33.420Z,46.40
2022-11-08T13:21:02.951Z,45.70
2022-11-08T13:23:29.513Z,44.60
2022-11-08T13:26:11.069Z,44.63
2022-11-08T13:28:43.606Z,43.94
2022-11-08T13:31:30.485Z,43.27
2022-11-08T13:34:14.499Z,41.31
2022-11-08T13:36:46.422Z,42.30
2022-11-08T13:39:20.132Z,43.96
2022-11-08T13:42:05.880Z,45.67
2022-11-08T13:44:51.401Z,45.48
2022-11-08T13:47:33.308Z,43.69
2022-11-08T13:50:18.588Z,44.21
2022-11-08T13:52:46.250Z,43.36
2022-11-08T13:55:33.177Z,43.77
2022-11-08T13:58:00.887Z,45.19
2022-11-08T14:00:35.496Z,45.12
2022-11-08T14:03:02.099Z,48.09
2022-11-08T14:05:29.069Z,48.60
2022-11-08T14:07:59.028Z,49.78
2022-11-08T14:10:27.211Z,50.11
2022-11-08T14:12:53.858Z,50.96
2022-11-08T14:15:50.356Z,51.75
2022-11-08T14:18:30.110Z,52.14
2022-11-08T14:20:59.703Z,52.40
2022-11-08T14:23:33.048Z,52.74
2022-11-08T14:26:06.705Z,53.26
2022-11-08T14:28:34.269Z,53.35
2022-11-08T14:31:01.453Z,53.48
2022-11-08T14:33:28.930Z,53.96
2022-11-08T14:35:59.514Z,54.17
2022-11-08T14:38:26.820Z,54.44
2022-11-08T14:41:11.892Z,54.52
2022-11-08T14:43:42.714Z,55.37
2022-11-08T14:46:12.451Z,55.98
2022-11-08T14:48:39.000Z,56.54
2022-11-08T14:51:06.355Z,56.63
2022-11-08T14:53:47.115Z,57.25
2022-11-08T14:56:21.810Z,57.54
2022-11-08T14:58:51.451Z,58.14
2022-11-08T15:01:21.922Z,58.22
2022-11-08T15:04:05.239Z,57.93
2022-11-08T15:06:32.002Z,58.38
2022-11-08T15:08:58.632Z,58.33
2022-11-08T15:11:28.619Z,58.97
2022-11-08T15:13:57.009Z,59.33
2022-11-08T15:16:23.577Z,59.75
2022-11-08T15:18:50.407Z,60.26
2022-11-08T15:21:32.719Z,60.43
2022-11-08T15:24:15.734Z,60.74
2022-11-08T15:27:01.647Z,61.10
2022-11-08T15:29:30.315Z,61.30
2022-11-08T15:32:01.363Z,61.75
2022-11-08T15:34:40.618Z,62.17
2022-11-08T15:37:30.537Z,62.53
2022-11-08T15:40:06.106Z,62.69
2022-11-08T15:42:33.302Z,62.73
2022-11-08T15:45:01.190Z,62.95
2022-11-08T15:47:38.231Z,62.59
2022-11-08T15:50:25.010Z,62.82
2022-11-08T15:52:56.733Z,62.83
2022-11-08T15:55:26.127Z,62.97
2022-11-08T15:57:52.669Z,63.12
2022-11-08T16:00:22.290Z,63.31
2022-11-08T16:02:48.898Z,63.20
2022-11-08T16:05:25.469Z,63.31
2022-11-08T16:07:54.433Z,63.56
2022-11-08T16:10:27.087Z,63.77
2022-11-08T16:12:56.227Z,63.71
2022-11-08T16:15:27.042Z,63.94
2022-11-08T16:17:53.610Z,64.40
2022-11-08T16:20:30.681Z,64.80
2022-11-08T16:23:01.510Z,65.88
2022-11-08T16:25:28.374Z,65.75
2022-11-08T16:27:59.085Z,66.01
2022-11-08T16:30:25.943Z,66.11
2022-11-08T16:32:52.588Z,65.82
2022-11-08T16:35:19.374Z,66.11
2022-11-08T16:37:52.494Z,66.10
2022-11-08T16:40:20.705Z,65.94
2022-11-08T16:42:47.791Z,66.39
2022-11-08T16:45:16.789Z,66.78
2022-11-08T16:47:44.136Z,67.11
2022-11-08T16:50:14.657Z,67.08
2022-11-08T16:52:41.258Z,67.26
2022-11-08T16:55:16.455Z,67.48
2022-11-08T16:57:44.397Z,67.93
2022-11-08T17:00:14.487Z,68.68
2022-11-08T17:02:42.170Z,68.54
2022-11-08T17:05:17.511Z,68.44
2022-11-08T17:07:44.496Z,68.69
2022-11-08T17:10:17.537Z,68.65
2022-11-08T17:12:47.446Z,68.52
2022-11-08T17:15:17.743Z,68.10
2022-11-08T17:17:46.703Z,67.96
2022-11-08T17:20:14.611Z,67.73
2022-11-08T17:22:41.793Z,67.81
2022-11-08T17:25:08.643Z,67.75
2022-11-08T17:27:35.612Z,67.68
2022-11-08T17:30:02.728Z,67.69
2022-11-08T17:32:29.306Z,67.48
2022-11-08T17:34:58.219Z,67.42
2022-11-08T17:37:27.585Z,67.15
2022-11-08T17:39:55.624Z,67.03
2022-11-08T17:42:22.796Z,66.92
2022-11-08T17:44:54.409Z,67.10
2022-11-08T17:47:23.364Z,67.07
2022-11-08T17:49:52.389Z,66.86
2022-11-08T17:52:19.699Z,66.89
2022-11-08T17:54:52.820Z,66.73
2022-11-08T17:57:20.229Z,66.84
2022-11-08T17:59:48.323Z,66.73
2022-11-08T18:02:15.000Z,66.88
2022-11-08T18:04:41.646Z,66.81
2022-11-08T18:07:08.376Z,66.77
2022-11-08T18:09:35.045Z,66.99
2022-11-08T18:12:01.675Z,66.85
2022-11-08T18:14:29.021Z,66.67
2022-11-08T18:16:57.953Z,66.72
2022-11-08T18:19:24.602Z,66.77
2022-11-08T18:21:53.480Z,66.50
2022-11-08T18:24:20.229Z,66.79
2022-11-08T18:26:46.807Z,66.62
2022-11-08T18:29:16.031Z,66.76
2022-11-08T18:31:42.639Z,66.71
2022-11-08T18:34:14.187Z,66.78
2022-11-08T18:36:40.752Z,66.66
2022-11-08T18:39:07.295Z,66.67
2022-11-08T18:41:34.239Z,66.83
2022-11-08T18:44:01.151Z,66.98
2022-11-08T18:46:28.387Z,66.99
2022-11-08T18:48:55.293Z,66.94
2022-11-08T18:51:22.603Z,67.07
2022-11-08T18:53:49.274Z,67.11
2022-11-08T18:56:16.259Z,67.18
2022-11-08T18:58:43.467Z,67.21
2022-11-08T19:01:10.009Z,67.05
2022-11-08T19:03:36.741Z,67.21
2022-11-08T19:06:03.694Z,67.53
2022-11-08T19:08:31.417Z,67.40
2022-11-08T19:10:58.871Z,67.39
2022-11-08T19:13:28.418Z,67.34
2022-11-08T19:15:57.226Z,67.20
2022-11-08T19:18:23.863Z,67.33
2022-11-08T19:20:56.333Z,67.29
2022-11-08T19:23:25.656Z,67.28
2022-11-08T19:25:58.339Z,67.17
2022-11-08T19:28:28.024Z,67.09
2022-11-08T19:30:58.421Z,66.96
2022-11-08T19:33:25.860Z,66.71
2022-11-08T19:35:54.767Z,66.89
2022-11-08T19:38:22.520Z,67.12
2022-11-08T19:40:49.205Z,67.03
2022-11-08T19:43:16.412Z,66.97
2022-11-08T19:45:47.781Z,66.83
2022-11-08T19:48:17.653Z,66.98
2022-11-08T19:50:44.408Z,66.77
2022-11-08T19:53:11.008Z,66.86
2022-11-08T19:55:37.591Z,66.88
2022-11-08T19:58:08.669Z,66.88
2022-11-08T20:00:36.355Z,66.83
2022-11-08T20:03:07.745Z,66.47
2022-11-08T20:05:34.288Z,66.35
2022-11-08T20:08:04.825Z,66.36
2022-11-08T20:10:34.171Z,66.09
2022-11-08T20:13:03.044Z,66.48
2022-11-08T20:15:29.563Z,66.82
2022-11-08T20:17:56.151Z,67.13
2022-11-08T20:20:23.040Z,67.10
2022-11-08T20:22:50.035Z,67.15
2022-11-08T20:25:16.629Z,67.15
2022-11-08T20:27:43.167Z,67.22
2022-11-08T20:30:10.482Z,67.26
2022-11-08T20:32:37.048Z,67.26
2022-11-08T20:35:04.328Z,67.46
2022-11-08T20:37:35.877Z,67.26
2022-11-08T20:40:05.097Z,67.53
2022-11-08T20:42:34.050Z,67.41
2022-11-08T20:45:00.630Z,67.41
2022-11-08T20:47:27.158Z,67.44
2022-11-08T20:49:53.746Z,67.47
2022-11-08T20:52:26.771Z,67.53
2022-11-08T20:54:53.615Z,67.49
2022-11-08T20:57:22.809Z,67.50
2022-11-08T20:59:52.198Z,67.61
2022-11-08T21:02:19.264Z,67.66
2022-11-08T21:04:45.802Z,67.47
2022-11-08T21:08:01.317Z,67.48
2022-11-08T21:10:20.033Z,67.70
2022-11-08T21:12:47.818Z,67.44
2022-11-08T21:15:14.539Z,67.61
2022-11-08T21:17:43.468Z,67.21
2022-11-08T21:20:13.617Z,67.34
2022-11-08T21:22:40.181Z,67.41
2022-11-08T21:25:09.071Z,67.37
2022-11-08T21:27:37.152Z,67.14
2022-11-08T21:30:03.850Z,67.27
2022-11-08T21:32:32.888Z,67.28
2022-11-08T21:34:59.536Z,67.35
2022-11-08T21:37:28.591Z,67.40
2022-11-08T21:39:55.156Z,67.41
2022-11-08T21:42:21.767Z,67.52
2022-11-08T21:44:50.745Z,67.43
2022-11-08T21:47:17.341Z,67.59
2022-11-08T21:49:43.885Z,67.40
2022-11-08T21:52:15.627Z,67.42
2022-11-08T21:54:44.726Z,67.41
2022-11-08T21:57:11.271Z,67.53
2022-11-08T21:59:40.867Z,67.46
2022-11-08T22:02:09.786Z,67.35
2022-11-08T22:04:38.753Z,67.42
2022-11-08T22:07:05.310Z,67.23
2022-11-08T22:09:34.769Z,67.13
2022-11-08T22:12:01.789Z,67.20
2022-11-08T22:14:28.385Z,67.12
2022-11-08T22:16:54.974Z,67.16
2022-11-08T22:19:21.513Z,67.02
2022-11-08T22:21:48.075Z,67.10
2022-11-08T22:24:20.302Z,67.23
2022-11-08T22:26:47.510Z,67.29
2022-11-08T22:29:14.357Z,67.24
2022-11-08T22:31:43.561Z,67.33
2022-11-08T22:34:12.691Z,67.24
2022-11-08T22:36:45.329Z,67.32
2022-11-08T22:39:18.753Z,67.45
2022-11-08T22:41:45.887Z,67.36
2022-11-08T22:44:13.075Z,67.40
2022-11-08T22:46:42.298Z,67.47
2022-11-08T22:49:12.641Z,67.68
2022-11-08T22:51:39.835Z,67.81
2022-11-08T22:54:06.581Z,67.70
2022-11-08T22:56:33.179Z,67.39
2022-11-08T22:58:59.769Z,67.33
2022-11-08T23:01:26.310Z,67.27
2022-11-08T23:03:52.852Z,67.28
2022-11-08T23:06:19.440Z,67.21
2022-11-08T23:08:48.560Z,67.43
2022-11-08T23:11:34.471Z,67.35
2022-11-08T23:14:19.706Z,67.51
2022-11-08T23:16:46.536Z,67.32
2022-11-08T23:19:34.833Z,67.24
2022-11-08T23:22:20.140Z,67.18
2022-11-08T23:24:49.057Z,67.19
2022-11-08T23:27:34.708Z,67.21
2022-11-08T23:30:20.038Z,67.27
2022-11-08T23:32:47.721Z,67.23
2022-11-08T23:35:14.441Z,67.08
2022-11-08T23:37:43.387Z,67.24
2022-11-08T23:40:29.384Z,67.41
2022-11-08T23:43:23.956Z,67.66
2022-11-08T23:45:53.479Z,67.67
2022-11-08T23:48:20.053Z,67.81
2022-11-08T23:50:50.198Z,67.65
2022-11-08T23:53:17.100Z,67.88
2022-11-08T23:55:44.591Z,68.07
2022-11-08T23:58:18.300Z,67.89
